Terminal Aerodrome Forecast
Issued by NWS Amarillo, TX

Current Version | Previous Version | Text Only | Print | Product List | Glossary On
Versions: 1 2 3 4 5 6 7 8 9 10 11 12 13
000
FTUS44 KAMA 230540
TAFDHT
TAF
KDHT 230540Z 2306/2406 17014KT P6SM SKC
     FM231000 18013KT P6SM SCT012
      TEMPO 2310/2314 6SM BR OVC010
     FM231700 21031G42KT P6SM SCT100 BKN300
     FM240200 22019G29KT P6SM SCT150=

USA.gov is the U.S. government's official web portal to all federal, state and local government web resources and services.